Time;durP1;ratioP1;P1;durP2;ratioP2;P2;SDS_P1;SDS_P2;PMS_P1;PMS_P2;Temp;Humidity;BMP_temperature;BMP_pressure;BME280_temperature;BME280_humidity;BME280_pressure;Samples;Min_cycle;Max_cycle;Signal;HPM_P1;HPM_P2
2022/05/06 00:00:40;;;;;;;2.97;2.25;;;14.10;99.90;;;;;;5068220;28;20227;-61
2022/05/06 00:03:08;;;;;;;8.40;2.80;;;14.00;99.90;;;;;;5069672;28;20721;-62
2022/05/06 00:05:37;;;;;;;2.55;2.00;;;13.90;99.90;;;;;;5070208;28;20250;-62
2022/05/06 00:08:05;;;;;;;3.67;2.40;;;13.90;99.90;;;;;;5070340;28;20737;-62
2022/05/06 00:10:33;;;;;;;2.50;2.30;;;13.90;99.90;;;;;;5070461;28;20223;-62
2022/05/06 00:13:01;;;;;;;3.33;2.38;;;13.80;99.90;;;;;;5069655;28;20264;-61
2022/05/06 00:15:29;;;;;;;3.45;2.75;;;13.80;99.90;;;;;;5060929;28;20231;-62
2022/05/06 00:17:57;;;;;;;3.42;2.17;;;13.80;99.90;;;;;;5050801;28;20208;-61
2022/05/06 00:20:26;;;;;;;3.33;2.55;;;13.70;99.90;;;;;;5050793;28;20227;-61
2022/05/06 00:22:57;;;;;;;4.05;2.67;;;13.60;99.90;;;;;;5058247;28;20227;-60
2022/05/06 00:25:26;;;;;;;3.30;2.17;;;13.60;99.90;;;;;;5050998;28;20215;-62
2022/05/06 00:27:54;;;;;;;4.85;2.58;;;13.50;99.90;;;;;;5050635;28;20230;-62
2022/05/06 00:30:22;;;;;;;2.65;2.15;;;13.50;99.90;;;;;;5050916;28;20243;-62
2022/05/06 00:32:50;;;;;;;4.55;2.10;;;13.90;99.90;;;;;;5050214;28;20279;-62
2022/05/06 00:35:18;;;;;;;2.80;2.45;;;13.50;99.90;;;;;;5050572;28;20204;-62
2022/05/06 00:37:46;;;;;;;3.17;2.30;;;13.40;99.90;;;;;;5050594;28;20200;-64
2022/05/06 00:40:15;;;;;;;4.10;2.63;;;13.40;99.90;;;;;;5050569;28;20311;-64
2022/05/06 00:42:43;;;;;;;3.83;2.47;;;13.40;99.90;;;;;;5050490;28;20628;-64
2022/05/06 00:45:12;;;;;;;5.82;2.53;;;13.40;99.90;;;;;;5050791;28;20247;-64
2022/05/06 00:47:40;;;;;;;3.60;2.40;;;13.40;99.90;;;;;;5050604;28;20696;-65
2022/05/06 00:50:10;;;;;;;3.63;2.10;;;13.40;99.90;;;;;;5050091;28;20289;-65
2022/05/06 00:52:38;;;;;;;2.63;2.42;;;13.40;99.90;;;;;;5058182;28;20287;-64
2022/05/06 00:55:07;;;;;;;4.78;1.90;;;13.40;99.90;;;;;;5069622;28;20227;-64
2022/05/06 00:57:36;;;;;;;6.00;2.60;;;13.40;99.90;;;;;;5069766;28;20234;-64
2022/05/06 01:00:21;;;;;;;3.00;2.70;;;13.30;99.90;;;;;;5069865;28;20243;-64
2022/05/06 01:02:49;;;;;;;4.65;2.78;;;13.30;99.90;;;;;;5069301;28;20865;-65
2022/05/06 01:05:18;;;;;;;2.60;2.40;;;13.30;99.90;;;;;;5069512;28;20207;-65
2022/05/06 01:07:49;;;;;;;2.33;2.13;;;13.20;99.90;;;;;;5069360;28;20239;-65
2022/05/06 01:10:18;;;;;;;3.25;2.33;;;13.20;99.90;;;;;;5073394;28;20312;-65
2022/05/06 01:12:49;;;;;;;3.88;2.75;;;13.20;99.90;;;;;;5069651;28;20196;-65
2022/05/06 01:15:21;;;;;;;2.92;2.50;;;13.20;99.90;;;;;;5065866;28;20196;-65
2022/05/06 01:17:50;;;;;;;4.38;2.92;;;13.10;99.90;;;;;;5053786;28;20265;-65
2022/05/06 01:20:20;;;;;;;5.03;2.28;;;13.10;99.90;;;;;;5053814;28;20224;-65
2022/05/06 01:22:50;;;;;;;2.95;2.50;;;13.00;99.90;;;;;;5061519;28;20719;-64
2022/05/06 01:25:20;;;;;;;3.10;2.80;;;13.00;99.90;;;;;;5053960;28;20273;-64
2022/05/06 01:27:53;;;;;;;5.68;3.00;;;13.00;99.90;;;;;;5053706;28;20295;-63
2022/05/06 01:30:30;;;;;;;3.28;2.97;;;13.00;99.90;;;;;;5053738;28;20769;-64
2022/05/06 01:33:00;;;;;;;3.60;3.20;;;13.00;99.90;;;;;;5053153;28;20659;-63
2022/05/06 01:35:30;;;;;;;4.22;2.80;;;13.00;99.90;;;;;;5053720;28;20250;-63
2022/05/06 01:38:03;;;;;;;6.43;3.33;;;13.00;99.90;;;;;;5053447;28;20219;-64
2022/05/06 01:40:37;;;;;;;3.30;2.80;;;12.90;99.90;;;;;;5047686;28;20266;-65
2022/05/06 01:43:08;;;;;;;3.90;2.35;;;12.90;99.90;;;;;;5052776;28;20234;-64
2022/05/06 01:45:38;;;;;;;3.88;2.20;;;12.90;99.90;;;;;;5053705;28;20251;-64
2022/05/06 01:48:08;;;;;;;2.97;2.70;;;12.90;99.90;;;;;;5053337;28;20200;-65
2022/05/06 01:50:38;;;;;;;2.78;2.58;;;12.90;99.90;;;;;;5054954;28;20266;-65
2022/05/06 01:53:09;;;;;;;3.85;2.88;;;12.90;99.90;;;;;;5064875;28;20199;-65
2022/05/06 01:55:37;;;;;;;3.83;2.45;;;12.90;99.90;;;;;;5072607;28;20586;-65
2022/05/06 01:58:05;;;;;;;2.78;2.33;;;12.90;99.90;;;;;;5072479;28;20203;-65
2022/05/06 02:00:35;;;;;;;2.72;2.53;;;12.90;99.90;;;;;;5069068;28;20633;-65
2022/05/06 02:03:04;;;;;;;3.47;2.65;;;12.90;99.90;;;;;;5071710;28;20203;-66
2022/05/06 02:05:31;;;;;;;2.58;2.25;;;12.90;99.90;;;;;;5072130;28;20203;-65
2022/05/06 02:07:59;;;;;;;4.10;2.40;;;12.90;99.90;;;;;;5072206;28;20651;-64
2022/05/06 02:10:28;;;;;;;3.40;2.40;;;12.80;99.90;;;;;;5072232;28;20568;-64
2022/05/06 02:12:56;;;;;;;2.72;2.20;;;12.80;99.90;;;;;;5071551;28;20287;-64
2022/05/06 02:15:24;;;;;;;2.60;2.40;;;12.80;99.90;;;;;;5063394;28;20232;-64
2022/05/06 02:17:52;;;;;;;2.50;2.05;;;12.80;99.90;;;;;;5052859;28;20809;-64
2022/05/06 02:20:20;;;;;;;2.58;2.38;;;12.90;99.90;;;;;;5052803;28;20689;-60
2022/05/06 02:22:47;;;;;;;2.45;2.15;;;12.90;99.90;;;;;;5060719;28;20682;-61
2022/05/06 02:25:15;;;;;;;2.75;2.00;;;12.90;99.90;;;;;;5052939;28;20196;-62
2022/05/06 02:27:44;;;;;;;2.35;2.15;;;12.90;99.90;;;;;;5052482;28;20323;-61
2022/05/06 02:33:23;;;;;;;5.93;2.45;;;12.90;99.90;;;;;;5051970;28;20212;-61
2022/05/06 02:35:51;;;;;;;2.20;2.00;;;12.90;99.90;;;;;;5052560;28;20208;-61
2022/05/06 02:38:20;;;;;;;2.13;1.73;;;12.80;99.90;;;;;;5052409;28;20226;-60
2022/05/06 02:40:48;;;;;;;3.03;1.95;;;12.70;99.90;;;;;;5052530;28;20621;-61
2022/05/06 02:43:17;;;;;;;2.60;1.83;;;12.70;99.90;;;;;;5051578;28;20975;-61
2022/05/06 02:45:45;;;;;;;2.00;1.83;;;12.60;99.90;;;;;;5052357;28;20669;-61
2022/05/06 02:48:14;;;;;;;2.60;2.40;;;12.60;99.90;;;;;;5052090;28;20575;-64
2022/05/06 02:50:42;;;;;;;4.65;1.88;;;12.60;99.90;;;;;;5053970;28;20304;-63
2022/05/06 02:53:11;;;;;;;3.97;2.00;;;12.50;99.90;;;;;;5065041;28;20234;-64
2022/05/06 02:55:39;;;;;;;3.05;1.90;;;12.50;99.90;;;;;;5071141;28;20233;-64
2022/05/06 02:58:06;;;;;;;1.92;1.80;;;12.50;99.90;;;;;;5071446;28;20203;-64
2022/05/06 03:00:36;;;;;;;4.50;1.88;;;12.60;99.90;;;;;;5071515;28;20257;-65
2022/05/06 03:03:05;;;;;;;3.38;2.10;;;12.60;99.90;;;;;;5070618;28;20212;-65
2022/05/06 03:05:33;;;;;;;3.50;2.05;;;12.60;99.90;;;;;;5071074;28;20234;-64
2022/05/06 03:08:01;;;;;;;2.10;1.90;;;12.60;99.90;;;;;;5065935;28;20326;-63
2022/05/06 03:10:29;;;;;;;4.55;1.90;;;12.50;99.90;;;;;;5070975;28;20686;-64
2022/05/06 03:12:58;;;;;;;3.08;1.85;;;12.60;99.90;;;;;;5070436;28;20291;-64
2022/05/06 03:15:26;;;;;;;2.78;1.85;;;12.50;99.90;;;;;;5062288;28;20245;-64
2022/05/06 03:17:56;;;;;;;2.13;2.03;;;12.40;99.90;;;;;;5051560;28;20253;-63
2022/05/06 03:20:24;;;;;;;3.28;2.03;;;12.40;99.90;;;;;;5051222;28;20220;-64
2022/05/06 03:22:53;;;;;;;2.78;2.30;;;12.70;99.90;;;;;;5051101;28;20219;-64
2022/05/06 03:25:21;;;;;;;4.47;2.25;;;12.40;99.90;;;;;;5056988;28;20243;-64
2022/05/06 03:28:02;;;;;;;4.40;2.10;;;12.30;99.90;;;;;;5053523;28;20220;-64
2022/05/06 03:30:32;;;;;;;3.30;1.88;;;12.30;99.90;;;;;;5051263;28;20250;-64
2022/05/06 03:33:01;;;;;;;4.43;1.92;;;12.30;99.90;;;;;;5051037;28;20196;-63
2022/05/06 03:35:30;;;;;;;2.75;2.55;;;12.30;99.90;;;;;;5051556;28;20207;-63
2022/05/06 03:37:57;;;;;;;3.17;2.10;;;12.30;99.90;;;;;;5051566;28;20228;-63
2022/05/06 03:40:25;;;;;;;2.55;2.20;;;12.10;99.90;;;;;;5051183;28;20220;-63
2022/05/06 03:42:53;;;;;;;2.90;2.38;;;11.90;99.90;;;;;;5050835;28;20290;-64
2022/05/06 03:45:21;;;;;;;4.88;3.30;;;11.80;99.90;;;;;;5051576;28;20266;-64
2022/05/06 03:47:49;;;;;;;3.35;3.05;;;11.80;99.90;;;;;;5051188;28;20207;-64
2022/05/06 03:53:06;;;;;;;3.05;2.72;;;11.60;99.90;;;;;;5063203;22;20259;-64
2022/05/06 03:55:34;;;;;;;4.85;2.63;;;11.60;99.90;;;;;;5034235;28;20204;-64
2022/05/06 03:58:02;;;;;;;3.78;3.47;;;11.60;99.90;;;;;;5030589;28;20733;-63
2022/05/06 04:00:29;;;;;;;5.47;3.92;;;11.60;99.90;;;;;;5030955;28;20197;-62
2022/05/06 04:02:57;;;;;;;7.95;3.88;;;11.50;99.90;;;;;;5030284;28;20259;-62
2022/05/06 04:05:34;;;;;;;3.97;3.42;;;11.50;99.90;;;;;;5031058;28;20200;-61
2022/05/06 04:08:02;;;;;;;4.68;4.10;;;11.50;99.90;;;;;;5024492;28;20650;-64
2022/05/06 04:10:30;;;;;;;5.65;3.50;;;11.40;99.90;;;;;;5024389;28;20239;-62
2022/05/06 04:12:58;;;;;;;4.13;3.72;;;11.40;99.90;;;;;;5024015;28;20694;-62
2022/05/06 04:15:26;;;;;;;7.05;3.90;;;11.40;99.90;;;;;;5024274;28;20201;-62
2022/05/06 04:17:54;;;;;;;5.25;4.00;;;11.40;99.90;;;;;;5024571;28;20204;-62
2022/05/06 04:25:55;;;;;;;4.68;4.30;;;11.40;99.90;;;;;;5030672;28;20275;-63
2022/05/06 04:28:24;;;;;;;4.80;4.30;;;11.40;99.90;;;;;;5030569;28;20228;-61
2022/05/06 04:30:52;;;;;;;7.35;3.83;;;11.40;99.90;;;;;;5030608;28;20209;-62
2022/05/06 04:33:20;;;;;;;6.68;4.53;;;11.40;99.90;;;;;;5029439;28;20239;-62
2022/05/06 04:35:49;;;;;;;4.30;3.90;;;11.40;99.90;;;;;;5030367;28;20233;-62
2022/05/06 04:38:19;;;;;;;6.00;4.53;;;11.30;99.90;;;;;;5030599;28;20193;-62
2022/05/06 04:40:47;;;;;;;3.88;3.55;;;11.40;99.90;;;;;;5030836;28;20233;-62
2022/05/06 04:43:17;;;;;;;6.57;4.78;;;11.40;99.90;;;;;;5033575;28;20256;-64
2022/05/06 04:45:50;;;;;;;8.63;4.45;;;11.50;99.90;;;;;;5033632;28;20225;-62
2022/05/06 04:48:19;;;;;;;4.28;3.88;;;11.50;99.90;;;;;;5027835;28;20847;-62
2022/05/06 04:50:47;;;;;;;5.07;3.80;;;11.60;99.90;;;;;;5028733;28;20578;-63
2022/05/06 04:53:16;;;;;;;4.50;3.58;;;11.70;99.90;;;;;;5032842;28;20302;-63
2022/05/06 04:55:46;;;;;;;4.40;3.90;;;11.70;99.90;;;;;;5034045;28;20287;-63
2022/05/06 04:58:15;;;;;;;4.90;4.38;;;11.70;99.90;;;;;;5031651;28;20258;-63
2022/05/06 05:00:43;;;;;;;5.13;3.92;;;11.70;99.90;;;;;;5018087;28;20248;-64
2022/05/06 05:03:12;;;;;;;6.15;4.10;;;11.90;99.90;;;;;;5014904;28;20231;-64
2022/05/06 05:05:40;;;;;;;6.32;3.45;;;11.90;99.90;;;;;;5015009;28;21379;-64
2022/05/06 05:08:09;;;;;;;4.60;3.55;;;12.10;99.90;;;;;;5012785;28;20288;-64
2022/05/06 05:10:37;;;;;;;4.35;2.75;;;12.20;99.90;;;;;;5018545;28;20823;-64
2022/05/06 05:13:07;;;;;;;4.65;3.20;;;12.20;99.90;;;;;;5012462;28;20320;-64
2022/05/06 05:15:35;;;;;;;5.80;4.32;;;12.30;99.90;;;;;;5018184;28;20211;-64
2022/05/06 05:18:03;;;;;;;5.35;3.78;;;12.40;99.90;;;;;;5015685;28;20219;-64
2022/05/06 05:20:32;;;;;;;6.40;3.00;;;12.50;99.90;;;;;;5016477;28;20751;-64
2022/05/06 05:23:00;;;;;;;5.45;3.47;;;12.50;99.90;;;;;;5013161;28;20220;-64
2022/05/06 05:25:28;;;;;;;5.20;4.13;;;12.60;99.90;;;;;;5015171;28;20217;-64
2022/05/06 05:27:56;;;;;;;3.65;3.33;;;12.60;99.90;;;;;;5017287;28;20859;-63
2022/05/06 05:30:25;;;;;;;6.32;3.95;;;12.70;99.90;;;;;;5013465;28;20693;-64
2022/05/06 05:32:53;;;;;;;3.88;3.45;;;12.80;99.90;;;;;;5014455;28;20244;-64
2022/05/06 05:35:21;;;;;;;3.75;3.42;;;13.00;99.90;;;;;;5016292;28;20954;-64
2022/05/06 05:37:49;;;;;;;6.40;3.83;;;12.80;99.90;;;;;;5017814;28;20284;-64
2022/05/06 05:40:17;;;;;;;5.35;3.53;;;12.90;99.90;;;;;;5014832;28;20323;-64
2022/05/06 05:42:45;;;;;;;4.95;3.75;;;13.00;99.90;;;;;;5014570;28;20312;-64
2022/05/06 05:50:45;;;;;;;4.88;3.10;;;13.30;99.90;;;;;;5016870;28;20307;-64
2022/05/06 05:53:13;;;;;;;3.42;3.13;;;13.50;99.90;;;;;;5010048;28;20624;-63
2022/05/06 05:55:41;;;;;;;5.50;3.40;;;13.60;99.90;;;;;;5016249;28;20311;-64
2022/05/06 05:58:09;;;;;;;4.70;3.42;;;13.70;99.90;;;;;;5013148;28;20233;-64
2022/05/06 06:00:37;;;;;;;4.60;3.25;;;13.80;99.90;;;;;;5017266;28;20233;-64
2022/05/06 06:03:06;;;;;;;5.03;3.60;;;14.00;99.90;;;;;;5012296;28;20235;-64
2022/05/06 06:05:34;;;;;;;4.18;3.65;;;14.10;99.90;;;;;;5016403;28;20314;-64
2022/05/06 06:08:02;;;;;;;7.88;3.88;;;14.20;99.90;;;;;;5018763;28;20243;-63
2022/05/06 06:10:30;;;;;;;3.70;3.13;;;14.30;99.90;;;;;;5031668;28;20277;-63
2022/05/06 06:12:58;;;;;;;4.93;3.45;;;14.40;99.90;;;;;;5031401;28;20311;-64
2022/05/06 06:15:26;;;;;;;3.70;3.40;;;14.50;99.90;;;;;;5031466;28;20204;-63
2022/05/06 06:17:54;;;;;;;3.58;3.20;;;14.60;99.90;;;;;;5031420;28;20696;-64
2022/05/06 06:20:23;;;;;;;6.53;3.15;;;14.70;99.90;;;;;;5032842;28;20215;-64
2022/05/06 06:22:51;;;;;;;5.40;3.58;;;14.80;99.90;;;;;;5034550;28;20255;-64
2022/05/06 06:25:19;;;;;;;3.22;3.03;;;14.90;99.90;;;;;;5026796;28;20223;-64
2022/05/06 06:27:47;;;;;;;3.70;3.13;;;14.90;99.90;;;;;;5032352;28;20289;-63
2022/05/06 06:30:15;;;;;;;4.15;3.40;;;14.90;99.90;;;;;;5032142;28;20207;-63
2022/05/06 06:32:52;;;;;;;4.05;3.63;;;15.00;99.90;;;;;;5026655;28;20282;-64
2022/05/06 06:35:22;;;;;;;4.03;2.95;;;15.00;99.90;;;;;;5030215;28;20201;-64
2022/05/06 06:37:51;;;;;;;3.65;3.08;;;15.10;99.90;;;;;;5030072;28;20208;-64
2022/05/06 06:40:19;;;;;;;3.38;2.65;;;15.20;99.90;;;;;;5030290;28;20203;-64
2022/05/06 06:42:47;;;;;;;3.70;2.65;;;15.30;99.90;;;;;;5029862;28;20224;-64
2022/05/06 06:45:15;;;;;;;4.55;2.70;;;15.60;99.90;;;;;;5030458;28;20247;-64
2022/05/06 06:47:44;;;;;;;3.20;1.90;;;15.80;99.90;;;;;;5030531;28;20738;-64
2022/05/06 06:50:12;;;;;;;3.55;2.42;;;15.90;99.90;;;;;;5032243;28;20299;-64
2022/05/06 06:52:40;;;;;;;6.95;2.47;;;16.10;99.90;;;;;;5030836;28;20713;-65
2022/05/06 06:55:10;;;;;;;4.68;2.35;;;16.10;99.90;;;;;;5031655;28;20258;-63
2022/05/06 06:57:38;;;;;;;4.07;2.00;;;16.20;99.90;;;;;;5032108;28;20576;-63
2022/05/06 07:00:08;;;;;;;2.90;2.60;;;16.20;99.90;;;;;;5031778;28;20291;-64
2022/05/06 07:02:39;;;;;;;3.80;2.65;;;16.40;99.90;;;;;;5031140;28;20654;-63
2022/05/06 07:05:08;;;;;;;4.13;2.35;;;16.50;99.90;;;;;;5030883;28;20201;-64
2022/05/06 07:13:30;;;;;;;2.53;1.55;;;16.90;99.90;;;;;;5029640;28;20224;-64
2022/05/06 07:15:58;;;;;;;2.30;1.30;;;17.00;98.70;;;;;;5031178;28;20200;-65
2022/05/06 07:18:26;;;;;;;2.88;1.45;;;17.00;99.10;;;;;;5031564;28;20205;-64
2022/05/06 07:20:55;;;;;;;4.35;1.58;;;17.00;99.10;;;;;;5033611;28;20209;-63
2022/05/06 07:23:24;;;;;;;2.30;1.35;;;17.10;98.40;;;;;;5031511;28;20216;-64
2022/05/06 07:25:53;;;;;;;3.55;1.52;;;17.30;98.90;;;;;;5030863;28;20193;-64
2022/05/06 07:28:21;;;;;;;4.60;1.80;;;17.40;98.00;;;;;;5031539;28;20239;-64
2022/05/06 07:30:49;;;;;;;3.38;1.40;;;17.50;98.50;;;;;;5031337;28;20267;-64
2022/05/06 07:33:17;;;;;;;2.38;1.48;;;17.60;97.60;;;;;;5030733;28;20592;-64
2022/05/06 07:35:44;;;;;;;3.33;1.15;;;17.60;97.60;;;;;;5030989;28;20232;-64
2022/05/06 07:38:12;;;;;;;3.65;1.70;;;17.70;96.60;;;;;;5030941;28;20684;-64
2022/05/06 07:40:40;;;;;;;2.10;1.58;;;17.90;97.10;;;;;;5030846;28;20246;-63
2022/05/06 07:43:13;;;;;;;2.15;1.25;;;17.90;96.40;;;;;;5030553;28;20633;-64
2022/05/06 07:45:41;;;;;;;2.10;1.23;;;18.10;96.60;;;;;;5024778;28;20242;-64
2022/05/06 07:48:13;;;;;;;4.18;1.60;;;18.20;95.40;;;;;;5024676;28;20578;-63
2022/05/06 07:50:44;;;;;;;2.67;1.33;;;18.30;95.90;;;;;;5024842;28;20216;-64
2022/05/06 07:53:12;;;;;;;1.92;1.30;;;18.30;95.70;;;;;;5029655;28;20610;-64
2022/05/06 07:55:40;;;;;;;2.25;1.45;;;18.40;94.40;;;;;;5030923;28;20258;-64
2022/05/06 07:58:08;;;;;;;4.60;1.60;;;18.50;95.20;;;;;;5031080;28;20201;-64
2022/05/06 08:00:37;;;;;;;1.70;1.17;;;18.60;94.70;;;;;;5030810;28;20262;-65
2022/05/06 08:05:56;;;;;;;1.33;1.23;;;18.80;94.00;;;;;;5030778;28;20736;-65
2022/05/06 08:08:26;;;;;;;3.35;1.52;;;18.90;94.80;;;;;;5030895;28;20211;-64
2022/05/06 08:10:55;;;;;;;2.28;1.50;;;19.00;94.20;;;;;;5030825;28;20644;-64
2022/05/06 08:13:23;;;;;;;1.30;1.20;;;19.10;94.50;;;;;;5030440;28;20223;-63
2022/05/06 08:15:52;;;;;;;5.97;1.63;;;19.20;94.80;;;;;;5032773;28;20204;-64
2022/05/06 08:18:20;;;;;;;1.48;1.30;;;19.40;94.10;;;;;;5034741;28;20204;-64
2022/05/06 08:20:48;;;;;;;2.67;1.42;;;19.70;93.20;;;;;;5036070;28;20239;-65
2022/05/06 08:23:16;;;;;;;2.10;1.65;;;19.80;92.60;;;;;;5035176;28;20266;-65
2022/05/06 08:25:44;;;;;;;3.15;1.80;;;19.70;92.50;;;;;;5034523;28;20204;-64
2022/05/06 08:28:13;;;;;;;2.35;1.30;;;19.80;92.20;;;;;;5034756;28;20283;-64
2022/05/06 08:30:41;;;;;;;1.90;1.25;;;19.60;92.20;;;;;;5034319;28;20247;-64
2022/05/06 08:33:11;;;;;;;2.10;1.30;;;19.70;92.30;;;;;;5033905;28;20647;-64
2022/05/06 08:35:38;;;;;;;2.20;1.40;;;19.80;92.10;;;;;;5034540;28;20270;-65
2022/05/06 08:38:08;;;;;;;1.20;1.10;;;19.90;92.30;;;;;;5034390;28;20236;-65
2022/05/06 08:40:36;;;;;;;3.05;1.33;;;20.10;92.20;;;;;;5034165;28;20196;-65
2022/05/06 08:43:05;;;;;;;3.88;1.33;;;20.10;91.30;;;;;;5033741;28;20715;-64
2022/05/06 08:51:06;;;;;;;1.17;1.08;;;20.30;91.10;;;;;;5034047;28;20295;-65
2022/05/06 08:53:36;;;;;;;1.92;1.20;;;20.60;90.40;;;;;;5032917;28;20244;-64
2022/05/06 08:56:05;;;;;;;2.85;1.73;;;20.70;89.30;;;;;;5034532;28;20258;-65
2022/05/06 08:58:36;;;;;;;3.20;1.45;;;20.70;90.70;;;;;;5034028;28;20565;-64
2022/05/06 09:01:06;;;;;;;1.45;1.20;;;21.00;89.90;;;;;;5033909;28;20205;-64
2022/05/06 09:03:45;;;;;;;1.52;1.15;;;21.40;90.00;;;;;;5033355;28;20314;-65
2022/05/06 09:06:20;;;;;;;2.20;1.20;;;21.50;91.00;;;;;;5027697;28;20201;-65
2022/05/06 09:08:50;;;;;;;2.53;1.50;;;21.70;88.90;;;;;;5028388;28;20214;-64
2022/05/06 09:12:40;;;;;;;2.28;1.27;;;21.60;87.70;;;;;;5033817;28;20596;-65
2022/05/06 09:14:07;;;;;;;2.05;1.55;;;21.50;88.00;;;;;;5033218;28;20662;-64
2022/05/06 09:16:40;;;;;;;1.98;1.40;;;21.60;88.80;;;;;;5033747;28;20204;-65
2022/05/06 09:19:15;;;;;;;1.65;1.15;;;21.90;89.10;;;;;;5033821;28;20570;-65
2022/05/06 09:22:05;;;;;;;1.67;1.10;;;22.10;87.50;;;;;;5036206;28;20566;-65
2022/05/06 09:24:34;;;;;;;2.25;1.35;;;22.00;87.60;;;;;;5029430;28;20229;-65
2022/05/06 09:27:05;;;;;;;1.90;1.52;;;21.80;88.10;;;;;;5032625;28;20201;-65
2022/05/06 09:29:38;;;;;;;4.80;1.40;;;21.70;87.60;;;;;;5033410;28;20286;-64
2022/05/06 09:32:23;;;;;;;2.40;1.40;;;21.70;86.60;;;;;;5032237;28;20221;-65
2022/05/06 09:34:54;;;;;;;2.85;1.85;;;21.70;88.60;;;;;;5033066;28;20239;-65
2022/05/06 09:37:30;;;;;;;4.68;1.40;;;22.10;86.70;;;;;;5033030;28;20227;-65
2022/05/06 09:40:03;;;;;;;1.45;1.35;;;22.20;86.10;;;;;;5033448;28;20235;-65
2022/05/06 09:42:32;;;;;;;3.38;1.27;;;22.30;85.10;;;;;;5026302;28;20717;-64
2022/05/06 09:45:01;;;;;;;1.98;1.23;;;22.30;86.80;;;;;;5026256;28;20544;-66
2022/05/06 09:47:29;;;;;;;1.23;1.13;;;22.50;86.10;;;;;;5027025;28;20209;-65
2022/05/06 09:49:59;;;;;;;3.03;1.65;;;22.70;84.10;;;;;;5032945;28;20300;-64
2022/05/06 09:52:27;;;;;;;2.00;1.20;;;22.40;84.00;;;;;;5060322;22;20227;-72
2022/05/06 09:54:55;;;;;;;4.20;1.35;;;22.50;85.60;;;;;;5059178;28;20282;-72
2022/05/06 09:57:24;;;;;;;1.63;1.48;;;22.90;86.30;;;;;;5053105;28;20231;-71
2022/05/06 09:59:52;;;;;;;1.98;1.35;;;23.10;84.10;;;;;;5053305;28;20849;-72
2022/05/06 10:02:20;;;;;;;3.70;1.45;;;23.40;82.60;;;;;;5052118;28;20310;-70
2022/05/06 10:04:49;;;;;;;3.10;1.00;;;23.30;81.80;;;;;;5052651;28;20203;-71
2022/05/06 10:07:19;;;;;;;4.35;1.60;;;23.20;80.80;;;;;;5051674;28;20246;-71
2022/05/06 10:09:56;;;;;;;2.65;1.13;;;23.10;82.70;;;;;;5052610;28;20211;-69
2022/05/06 10:12:26;;;;;;;2.03;1.20;;;23.20;80.40;;;;;;5051843;28;20258;-71
2022/05/06 10:14:54;;;;;;;1.50;1.40;;;23.30;79.90;;;;;;5052089;28;20692;-70
2022/05/06 10:17:51;;;;;;;2.88;1.48;;;23.70;81.50;;;;;;5051733;28;20590;-70
2022/05/06 10:20:59;;;;;;;2.75;1.30;;;23.40;78.70;;;;;;5011819;28;20607;-71
2022/05/06 10:23:48;;;;;;;2.55;1.45;;;23.10;80.30;;;;;;5054437;28;20215;-71
2022/05/06 10:26:42;;;;;;;1.55;1.00;;;23.20;80.00;;;;;;5046998;28;20192;-72
2022/05/06 10:35:12;;;;;;;3.25;1.30;;;23.20;79.00;;;;;;5052221;28;20580;-73
2022/05/06 10:37:43;;;;;;;1.30;1.20;;;23.00;75.60;;;;;;5046176;28;20733;-71
2022/05/06 10:40:31;;;;;;;1.45;1.13;;;23.00;77.30;;;;;;5051069;28;20254;-74
2022/05/06 10:43:00;;;;;;;3.45;1.10;;;22.80;78.80;;;;;;5051348;28;20235;-74
2022/05/06 10:45:30;;;;;;;2.63;1.25;;;22.80;77.70;;;;;;5051591;28;20351;-74
2022/05/06 10:47:59;;;;;;;2.15;1.42;;;22.90;77.40;;;;;;5052060;28;20230;-72
2022/05/06 10:50:38;;;;;;;2.13;1.70;;;22.80;76.10;;;;;;5051480;28;20228;-73
2022/05/06 10:53:06;;;;;;;3.50;1.27;;;23.00;76.90;;;;;;5059966;28;20234;-73
2022/05/06 10:55:35;;;;;;;2.33;1.33;;;23.20;76.20;;;;;;5051355;28;20204;-73
2022/05/06 10:58:06;;;;;;;1.70;1.20;;;23.30;75.60;;;;;;5051740;28;20231;-71
2022/05/06 11:00:38;;;;;;;4.25;1.17;;;23.20;75.70;;;;;;5044475;28;20235;-73
2022/05/06 11:03:05;;;;;;;1.23;1.13;;;23.40;78.10;;;;;;5044793;28;20223;-74
2022/05/06 11:05:33;;;;;;;3.60;1.17;;;23.50;75.50;;;;;;5051293;28;20227;-73
2022/05/06 11:08:05;;;;;;;1.45;1.35;;;23.50;79.40;;;;;;5051456;28;20231;-73
2022/05/06 11:10:35;;;;;;;1.13;1.02;;;23.80;76.30;;;;;;5051382;28;20208;-73
2022/05/06 11:13:25;;;;;;;2.15;1.05;;;24.50;74.30;;;;;;5050869;28;20216;-74
2022/05/06 11:15:55;;;;;;;2.47;1.42;;;24.80;76.20;;;;;;5050848;28;20669;-73
2022/05/06 11:18:23;;;;;;;2.50;1.40;;;24.40;73.90;;;;;;5051481;28;20232;-73
2022/05/06 11:20:52;;;;;;;5.38;1.30;;;24.30;75.30;;;;;;5052820;28;20200;-73
2022/05/06 11:23:19;;;;;;;2.30;1.70;;;24.40;75.30;;;;;;5055053;28;20220;-73
2022/05/06 11:25:50;;;;;;;1.23;1.13;;;24.00;74.30;;;;;;5050606;28;20688;-73
2022/05/06 11:28:21;;;;;;;3.60;1.90;;;23.80;75.90;;;;;;5051189;28;20623;-73
2022/05/06 11:30:49;;;;;;;2.08;1.30;;;23.80;76.80;;;;;;5051151;28;20298;-73
2022/05/06 11:33:23;;;;;;;2.78;2.00;;;23.80;76.50;;;;;;5050021;28;20258;-73
2022/05/06 11:35:53;;;;;;;1.90;1.73;;;24.10;76.60;;;;;;5050457;28;20202;-72
2022/05/06 11:38:31;;;;;;;2.42;1.50;;;24.20;76.50;;;;;;5044309;28;20235;-71
2022/05/06 11:41:08;;;;;;;2.58;1.33;;;24.40;75.40;;;;;;5050810;28;20199;-70
2022/05/06 11:43:37;;;;;;;3.10;1.20;;;24.30;75.60;;;;;;5050506;28;20239;-71
2022/05/06 11:48:50;;;;;;;2.88;1.48;;;24.80;75.00;;;;;;5050942;28;20801;-72
2022/05/06 11:51:22;;;;;;;4.55;1.50;;;24.70;75.50;;;;;;5050644;28;20216;-71
2022/05/06 11:53:50;;;;;;;2.03;1.60;;;24.70;75.20;;;;;;5059990;28;20236;-71
2022/05/06 11:56:23;;;;;;;2.10;1.42;;;24.40;75.30;;;;;;5049839;28;20261;-71
2022/05/06 11:58:52;;;;;;;1.98;1.13;;;24.80;79.40;;;;;;5050992;28;20196;-71
2022/05/06 12:01:28;;;;;;;2.72;1.30;;;24.80;74.20;;;;;;5044388;28;20208;-68
2022/05/06 12:04:01;;;;;;;2.55;1.17;;;25.00;76.80;;;;;;5050139;28;20219;-71
2022/05/06 12:06:38;;;;;;;4.00;1.67;;;25.10;75.40;;;;;;5049730;28;20207;-72
2022/05/06 12:09:11;;;;;;;1.55;1.20;;;24.90;75.10;;;;;;5050620;28;20215;-71
2022/05/06 12:11:41;;;;;;;2.60;1.20;;;25.20;74.40;;;;;;5050056;28;20226;-71
2022/05/06 12:14:10;;;;;;;2.38;1.25;;;25.40;74.50;;;;;;5050220;28;20270;-71
2022/05/06 12:16:53;;;;;;;3.53;1.85;;;25.60;74.90;;;;;;5050200;28;20657;-71
2022/05/06 12:19:33;;;;;;;1.85;1.52;;;25.50;73.60;;;;;;5050456;28;20636;-72
2022/05/06 12:22:04;;;;;;;2.50;1.27;;;25.30;73.50;;;;;;5055461;28;20208;-70
2022/05/06 12:24:42;;;;;;;2.92;1.42;;;25.20;75.10;;;;;;5051254;28;20286;-71
2022/05/06 12:27:12;;;;;;;3.50;1.50;;;25.00;73.30;;;;;;5050431;28;20616;-71
2022/05/06 12:29:40;;;;;;;1.05;0.95;;;25.20;74.90;;;;;;5050332;28;20216;-71
2022/05/06 12:32:09;;;;;;;3.35;1.60;;;25.20;74.40;;;;;;5049409;28;20278;-71
2022/05/06 12:34:37;;;;;;;2.95;2.75;;;25.50;73.90;;;;;;5050499;28;20203;-71
2022/05/06 12:37:12;;;;;;;2.13;1.92;;;25.90;75.50;;;;;;5050099;28;20200;-71
2022/05/06 12:39:41;;;;;;;3.45;1.38;;;25.50;74.30;;;;;;5050204;28;20614;-71
2022/05/06 12:42:14;;;;;;;2.00;1.02;;;25.40;73.70;;;;;;5049651;28;20247;-71
2022/05/06 12:44:43;;;;;;;3.45;1.00;;;25.60;73.30;;;;;;5050431;28;20299;-71
2022/05/06 12:49:39;;;;;;;2.58;1.27;;;25.80;73.70;;;;;;5050468;28;20242;-72
2022/05/06 12:50:06;;;;;;;1.35;1.20;;;25.70;72.70;;;;;;5050261;28;20212;-71
2022/05/06 12:52:35;;;;;;;3.38;1.25;;;25.20;72.70;;;;;;5054490;28;20231;-70
2022/05/06 12:55:04;;;;;;;4.47;3.88;;;24.70;73.60;;;;;;5054460;28;20215;-71
2022/05/06 12:57:33;;;;;;;15.43;9.02;;;24.60;74.90;;;;;;5050125;28;20624;-71
2022/05/06 13:00:01;;;;;;;4.00;3.40;;;24.70;73.90;;;;;;5050110;28;20232;-71
2022/05/06 13:02:29;;;;;;;4.38;2.45;;;24.90;73.50;;;;;;5049985;28;20636;-71
2022/05/06 13:04:57;;;;;;;5.90;1.55;;;25.00;72.70;;;;;;5053900;28;20206;-71
2022/05/06 13:07:25;;;;;;;4.18;1.13;;;25.30;73.60;;;;;;5053716;28;20230;-71
2022/05/06 13:09:53;;;;;;;4.65;1.10;;;25.30;73.50;;;;;;5053676;28;20246;-71
2022/05/06 13:12:22;;;;;;;3.80;1.10;;;25.60;73.50;;;;;;5052789;28;20238;-71
2022/05/06 13:14:51;;;;;;;3.05;1.30;;;25.40;71.50;;;;;;5054046;28;20391;-71
2022/05/06 13:17:19;;;;;;;2.47;1.80;;;25.30;72.10;;;;;;5053875;28;20642;-70
2022/05/06 13:19:47;;;;;;;1.13;1.02;;;25.20;72.40;;;;;;5053767;28;20219;-71
2022/05/06 13:22:16;;;;;;;3.22;1.00;;;25.70;72.60;;;;;;5058048;28;20270;-71
2022/05/06 13:24:44;;;;;;;2.10;1.45;;;25.50;72.20;;;;;;5053965;28;20231;-71
2022/05/06 13:27:12;;;;;;;2.28;0.80;;;25.20;71.40;;;;;;5053441;28;20227;-71
2022/05/06 13:29:41;;;;;;;2.50;1.75;;;25.20;72.40;;;;;;5053569;28;20265;-71
2022/05/06 13:32:10;;;;;;;1.98;1.00;;;25.30;72.20;;;;;;5052714;28;20262;-72
2022/05/06 13:34:38;;;;;;;1.85;1.10;;;25.80;72.30;;;;;;5053199;28;20204;-72
2022/05/06 13:37:07;;;;;;;2.35;1.30;;;25.80;70.90;;;;;;5052890;28;20196;-72
2022/05/06 13:39:35;;;;;;;3.17;1.50;;;25.90;71.80;;;;;;5053281;28;20253;-71
2022/05/06 13:42:03;;;;;;;1.45;1.02;;;26.10;71.40;;;;;;5052432;28;20192;-70